sensor_id;sensor_type;location;lat;lon;timestamp;pressure;altitude;pressure_sealevel;temperature;humidity
58698;BME280;44475;53.206;-6.106;2023-07-16T00:00:07;99743.63;;;24.27;48.22
58698;BME280;44475;53.206;-6.106;2023-07-16T00:02:34;99759.50;;;24.32;48.13
58698;BME280;44475;53.206;-6.106;2023-07-16T00:05:01;99759.34;;;24.25;48.39
58698;BME280;44475;53.206;-6.106;2023-07-16T00:07:27;99752.00;;;24.34;48.21
58698;BME280;44475;53.206;-6.106;2023-07-16T00:09:53;99759.88;;;24.28;48.22
58698;BME280;44475;53.206;-6.106;2023-07-16T00:12:20;99762.31;;;24.40;48.00
58698;BME280;44475;53.206;-6.106;2023-07-16T00:14:47;99776.66;;;24.42;48.01
58698;BME280;44475;53.206;-6.106;2023-07-16T00:17:13;99773.25;;;24.40;47.92
58698;BME280;44475;53.206;-6.106;2023-07-16T00:19:39;99773.91;;;24.34;48.18
58698;BME280;44475;53.206;-6.106;2023-07-16T00:22:05;99781.31;;;24.42;47.85
58698;BME280;44475;53.206;-6.106;2023-07-16T00:24:32;99776.31;;;24.28;48.34
58698;BME280;44475;53.206;-6.106;2023-07-16T00:26:58;99782.63;;;24.29;48.20
58698;BME280;44475;53.206;-6.106;2023-07-16T00:29:25;99789.47;;;24.33;48.30
58698;BME280;44475;53.206;-6.106;2023-07-16T00:31:52;99791.72;;;24.38;48.18
58698;BME280;44475;53.206;-6.106;2023-07-16T00:34:18;99797.34;;;24.36;48.17
58698;BME280;44475;53.206;-6.106;2023-07-16T00:36:44;99803.69;;;24.37;48.16
58698;BME280;44475;53.206;-6.106;2023-07-16T00:39:11;99789.81;;;24.30;48.09
58698;BME280;44475;53.206;-6.106;2023-07-16T00:41:37;99806.25;;;24.30;48.25
58698;BME280;44475;53.206;-6.106;2023-07-16T00:44:04;99812.06;;;24.35;48.28
58698;BME280;44475;53.206;-6.106;2023-07-16T00:46:30;99816.03;;;24.41;47.94
58698;BME280;44475;53.206;-6.106;2023-07-16T00:48:56;99809.50;;;24.42;47.91
58698;BME280;44475;53.206;-6.106;2023-07-16T00:51:25;99812.94;;;24.44;47.96
58698;BME280;44475;53.206;-6.106;2023-07-16T00:53:52;99812.44;;;24.41;47.94
58698;BME280;44475;53.206;-6.106;2023-07-16T00:56:18;99820.31;;;24.44;47.84
58698;BME280;44475;53.206;-6.106;2023-07-16T00:58:45;99819.66;;;24.42;48.09
58698;BME280;44475;53.206;-6.106;2023-07-16T01:01:11;99821.28;;;24.34;48.13
58698;BME280;44475;53.206;-6.106;2023-07-16T01:03:38;99828.16;;;24.38;48.04
58698;BME280;44475;53.206;-6.106;2023-07-16T01:06:16;99814.09;;;24.16;48.67
58698;BME280;44475;53.206;-6.106;2023-07-16T01:08:46;99828.66;;;24.34;48.05
58698;BME280;44475;53.206;-6.106;2023-07-16T01:11:13;99838.75;;;24.33;48.04
58698;BME280;44475;53.206;-6.106;2023-07-16T01:13:40;99835.50;;;24.38;48.08
58698;BME280;44475;53.206;-6.106;2023-07-16T01:16:17;99850.22;;;24.37;48.19
58698;BME280;44475;53.206;-6.106;2023-07-16T01:18:43;99858.13;;;24.40;47.92
58698;BME280;44475;53.206;-6.106;2023-07-16T01:21:09;99865.25;;;24.33;48.08
58698;BME280;44475;53.206;-6.106;2023-07-16T01:29:58;99887.53;;;24.38;47.96
58698;BME280;44475;53.206;-6.106;2023-07-16T01:32:31;99898.97;;;24.33;47.95
58698;BME280;44475;53.206;-6.106;2023-07-16T01:35:02;99906.00;;;24.36;47.97
58698;BME280;44475;53.206;-6.106;2023-07-16T01:37:28;99902.06;;;24.38;48.02
58698;BME280;44475;53.206;-6.106;2023-07-16T01:39:54;99915.75;;;24.30;48.04
58698;BME280;44475;53.206;-6.106;2023-07-16T01:42:21;99916.91;;;24.27;48.15
58698;BME280;44475;53.206;-6.106;2023-07-16T01:44:47;99913.50;;;24.34;48.02
58698;BME280;44475;53.206;-6.106;2023-07-16T01:47:32;99922.94;;;24.31;48.08
58698;BME280;44475;53.206;-6.106;2023-07-16T01:50:01;99917.47;;;24.31;47.96
58698;BME280;44475;53.206;-6.106;2023-07-16T01:52:29;99938.16;;;24.34;48.02
58698;BME280;44475;53.206;-6.106;2023-07-16T01:54:56;99940.94;;;24.42;47.68
58698;BME280;44475;53.206;-6.106;2023-07-16T01:57:22;99939.69;;;24.36;47.84
58698;BME280;44475;53.206;-6.106;2023-07-16T01:59:49;99954.81;;;24.41;47.77
58698;BME280;44475;53.206;-6.106;2023-07-16T02:02:15;99948.25;;;24.33;47.67
58698;BME280;44475;53.206;-6.106;2023-07-16T02:04:41;99961.44;;;24.38;47.98
58698;BME280;44475;53.206;-6.106;2023-07-16T02:07:07;99967.41;;;24.33;47.93
58698;BME280;44475;53.206;-6.106;2023-07-16T02:09:34;99972.97;;;24.42;47.73
58698;BME280;44475;53.206;-6.106;2023-07-16T02:12:01;99971.91;;;24.43;47.64
58698;BME280;44475;53.206;-6.106;2023-07-16T02:14:27;99982.81;;;24.34;47.96
58698;BME280;44475;53.206;-6.106;2023-07-16T02:16:54;99988.66;;;24.39;47.88
58698;BME280;44475;53.206;-6.106;2023-07-16T02:19:20;99984.75;;;24.42;47.74
58698;BME280;44475;53.206;-6.106;2023-07-16T02:21:46;99985.06;;;24.39;47.67
58698;BME280;44475;53.206;-6.106;2023-07-16T02:24:12;99993.59;;;24.36;47.74
58698;BME280;44475;53.206;-6.106;2023-07-16T02:26:39;99999.34;;;24.24;47.92
58698;BME280;44475;53.206;-6.106;2023-07-16T02:29:06;100004.13;;;24.22;48.17
58698;BME280;44475;53.206;-6.106;2023-07-16T02:31:35;100005.38;;;24.28;48.15
58698;BME280;44475;53.206;-6.106;2023-07-16T02:34:02;99998.63;;;24.41;47.77
58698;BME280;44475;53.206;-6.106;2023-07-16T02:36:28;100000.94;;;24.35;47.79
58698;BME280;44475;53.206;-6.106;2023-07-16T02:38:54;99998.75;;;24.39;47.72
58698;BME280;44475;53.206;-6.106;2023-07-16T02:41:22;100003.25;;;24.40;47.75
58698;BME280;44475;53.206;-6.106;2023-07-16T02:43:58;100006.59;;;24.34;47.66
58698;BME280;44475;53.206;-6.106;2023-07-16T02:46:24;100009.88;;;24.37;47.65
58698;BME280;44475;53.206;-6.106;2023-07-16T02:48:50;100011.09;;;24.43;47.24
58698;BME280;44475;53.206;-6.106;2023-07-16T02:51:17;100010.56;;;24.39;47.36
58698;BME280;44475;53.206;-6.106;2023-07-16T02:53:43;100006.25;;;24.37;47.30
58698;BME280;44475;53.206;-6.106;2023-07-16T02:56:09;100021.38;;;24.41;47.28
58698;BME280;44475;53.206;-6.106;2023-07-16T02:58:35;100008.56;;;24.42;47.38
58698;BME280;44475;53.206;-6.106;2023-07-16T03:01:02;100017.59;;;24.42;47.33
58698;BME280;44475;53.206;-6.106;2023-07-16T03:03:28;100016.19;;;24.38;47.42
58698;BME280;44475;53.206;-6.106;2023-07-16T03:05:56;100025.16;;;24.40;47.57
58698;BME280;44475;53.206;-6.106;2023-07-16T03:08:23;100020.28;;;24.34;47.48
58698;BME280;44475;53.206;-6.106;2023-07-16T03:10:52;100023.06;;;24.42;47.52
58698;BME280;44475;53.206;-6.106;2023-07-16T03:13:19;100034.34;;;24.39;47.20
58698;BME280;44475;53.206;-6.106;2023-07-16T03:15:45;100033.97;;;24.34;47.45
58698;BME280;44475;53.206;-6.106;2023-07-16T03:18:11;100040.13;;;24.36;47.35
58698;BME280;44475;53.206;-6.106;2023-07-16T03:20:38;100031.22;;;24.34;47.24
58698;BME280;44475;53.206;-6.106;2023-07-16T03:23:04;100048.91;;;24.39;47.36
58698;BME280;44475;53.206;-6.106;2023-07-16T03:25:30;100064.78;;;24.36;47.30
58698;BME280;44475;53.206;-6.106;2023-07-16T03:27:57;100030.66;;;24.22;47.51
58698;BME280;44475;53.206;-6.106;2023-07-16T03:30:23;100063.22;;;24.33;47.37
58698;BME280;44475;53.206;-6.106;2023-07-16T03:32:50;100070.09;;;24.37;47.25
58698;BME280;44475;53.206;-6.106;2023-07-16T03:35:17;100069.06;;;24.38;47.12
58698;BME280;44475;53.206;-6.106;2023-07-16T03:37:43;100068.78;;;24.42;47.24
58698;BME280;44475;53.206;-6.106;2023-07-16T03:40:17;100076.44;;;24.38;47.37
58698;BME280;44475;53.206;-6.106;2023-07-16T03:42:46;100087.38;;;24.38;47.06
58698;BME280;44475;53.206;-6.106;2023-07-16T03:45:12;100088.13;;;24.40;46.90
58698;BME280;44475;53.206;-6.106;2023-07-16T03:47:40;100097.47;;;24.37;47.25
58698;BME280;44475;53.206;-6.106;2023-07-16T03:50:07;100099.19;;;24.38;47.24
58698;BME280;44475;53.206;-6.106;2023-07-16T03:52:34;100100.38;;;24.36;47.31
58698;BME280;44475;53.206;-6.106;2023-07-16T03:55:00;100108.59;;;24.36;47.26
58698;BME280;44475;53.206;-6.106;2023-07-16T03:57:28;100118.75;;;24.44;47.13
58698;BME280;44475;53.206;-6.106;2023-07-16T03:59:55;100127.44;;;24.39;47.13
58698;BME280;44475;53.206;-6.106;2023-07-16T04:02:21;100125.00;;;24.36;47.16
58698;BME280;44475;53.206;-6.106;2023-07-16T04:04:48;100124.00;;;24.37;47.19
58698;BME280;44475;53.206;-6.106;2023-07-16T04:07:14;100120.53;;;24.35;47.22
58698;BME280;44475;53.206;-6.106;2023-07-16T04:09:40;100134.94;;;24.37;47.16
58698;BME280;44475;53.206;-6.106;2023-07-16T04:12:07;100130.47;;;24.36;47.07
58698;BME280;44475;53.206;-6.106;2023-07-16T04:14:33;100133.38;;;24.34;47.23
58698;BME280;44475;53.206;-6.106;2023-07-16T04:16:59;100131.75;;;24.23;47.30
58698;BME280;44475;53.206;-6.106;2023-07-16T04:19:26;100133.97;;;24.19;47.58
58698;BME280;44475;53.206;-6.106;2023-07-16T04:21:52;100141.06;;;24.31;47.34
58698;BME280;44475;53.206;-6.106;2023-07-16T04:24:18;100150.97;;;24.32;47.22
58698;BME280;44475;53.206;-6.106;2023-07-16T04:26:44;100154.09;;;24.37;47.21
58698;BME280;44475;53.206;-6.106;2023-07-16T04:29:10;100161.31;;;24.38;47.08
58698;BME280;44475;53.206;-6.106;2023-07-16T04:31:37;100161.31;;;24.38;47.15
58698;BME280;44475;53.206;-6.106;2023-07-16T04:34:03;100168.66;;;24.37;46.86
58698;BME280;44475;53.206;-6.106;2023-07-16T04:36:29;100168.09;;;24.34;47.36
58698;BME280;44475;53.206;-6.106;2023-07-16T04:38:55;100173.59;;;24.34;47.14
58698;BME280;44475;53.206;-6.106;2023-07-16T04:41:21;100167.78;;;24.37;46.83
58698;BME280;44475;53.206;-6.106;2023-07-16T04:43:48;100183.06;;;24.39;47.16
58698;BME280;44475;53.206;-6.106;2023-07-16T04:46:14;100178.53;;;24.30;47.25
58698;BME280;44475;53.206;-6.106;2023-07-16T04:48:42;100179.06;;;24.34;47.14
58698;BME280;44475;53.206;-6.106;2023-07-16T04:51:08;100187.81;;;24.37;47.15
58698;BME280;44475;53.206;-6.106;2023-07-16T04:53:35;100180.78;;;24.35;47.22
58698;BME280;44475;53.206;-6.106;2023-07-16T04:56:01;100181.31;;;24.38;46.98
58698;BME280;44475;53.206;-6.106;2023-07-16T04:58:27;100191.72;;;24.35;47.09
58698;BME280;44475;53.206;-6.106;2023-07-16T05:00:53;100195.63;;;24.32;47.08
58698;BME280;44475;53.206;-6.106;2023-07-16T05:03:19;100193.25;;;24.29;47.20
58698;BME280;44475;53.206;-6.106;2023-07-16T05:05:46;100199.63;;;24.38;47.08
58698;BME280;44475;53.206;-6.106;2023-07-16T05:08:12;100199.94;;;24.35;47.04
58698;BME280;44475;53.206;-6.106;2023-07-16T05:10:38;100207.63;;;24.31;47.09
58698;BME280;44475;53.206;-6.106;2023-07-16T05:13:04;100204.19;;;24.29;47.20
58698;BME280;44475;53.206;-6.106;2023-07-16T05:15:32;100213.94;;;24.32;47.06
58698;BME280;44475;53.206;-6.106;2023-07-16T05:17:58;100218.59;;;24.31;47.21
58698;BME280;44475;53.206;-6.106;2023-07-16T05:20:25;100222.00;;;24.33;46.98
58698;BME280;44475;53.206;-6.106;2023-07-16T05:22:51;100233.97;;;24.32;47.15
58698;BME280;44475;53.206;-6.106;2023-07-16T05:25:17;100233.66;;;24.35;46.90
58698;BME280;44475;53.206;-6.106;2023-07-16T05:27:44;100242.72;;;24.36;46.97
58698;BME280;44475;53.206;-6.106;2023-07-16T05:30:10;100237.56;;;24.33;46.87
58698;BME280;44475;53.206;-6.106;2023-07-16T05:32:36;100254.38;;;24.38;47.06
58698;BME280;44475;53.206;-6.106;2023-07-16T05:35:03;100256.91;;;24.31;47.01
58698;BME280;44475;53.206;-6.106;2023-07-16T05:37:29;100263.94;;;24.34;47.01
58698;BME280;44475;53.206;-6.106;2023-07-16T05:39:55;100274.00;;;24.33;47.18
58698;BME280;44475;53.206;-6.106;2023-07-16T05:42:22;100269.56;;;24.32;47.01
58698;BME280;44475;53.206;-6.106;2023-07-16T05:44:48;100279.34;;;24.35;46.94
58698;BME280;44475;53.206;-6.106;2023-07-16T05:47:14;100273.56;;;24.38;46.93
58698;BME280;44475;53.206;-6.106;2023-07-16T05:49:41;100275.59;;;24.36;46.96
58698;BME280;44475;53.206;-6.106;2023-07-16T05:52:07;100284.75;;;24.26;47.39
58698;BME280;44475;53.206;-6.106;2023-07-16T05:54:34;100285.81;;;24.34;47.06
58698;BME280;44475;53.206;-6.106;2023-07-16T05:57:00;100287.03;;;24.31;47.07
58698;BME280;44475;53.206;-6.106;2023-07-16T05:59:27;100296.31;;;24.38;46.93
58698;BME280;44475;53.206;-6.106;2023-07-16T06:01:53;100300.00;;;24.29;47.13
58698;BME280;44475;53.206;-6.106;2023-07-16T06:04:19;100302.25;;;24.34;46.96
58698;BME280;44475;53.206;-6.106;2023-07-16T06:06:46;100290.59;;;24.32;46.97
58698;BME280;44475;53.206;-6.106;2023-07-16T06:09:12;100294.75;;;24.36;46.90
58698;BME280;44475;53.206;-6.106;2023-07-16T06:11:38;100294.75;;;24.36;46.98
58698;BME280;44475;53.206;-6.106;2023-07-16T06:14:04;100296.63;;;24.35;46.96
58698;BME280;44475;53.206;-6.106;2023-07-16T06:16:30;100301.53;;;24.32;47.08
58698;BME280;44475;53.206;-6.106;2023-07-16T06:18:57;100312.34;;;24.33;47.08
58698;BME280;44475;53.206;-6.106;2023-07-16T06:21:23;100316.66;;;24.36;46.87
58698;BME280;44475;53.206;-6.106;2023-07-16T06:23:49;100317.66;;;24.35;47.00
58698;BME280;44475;53.206;-6.106;2023-07-16T06:26:15;100315.38;;;24.40;47.02
58698;BME280;44475;53.206;-6.106;2023-07-16T06:28:42;100320.56;;;24.33;47.06
58698;BME280;44475;53.206;-6.106;2023-07-16T06:31:08;100319.38;;;24.36;47.10
58698;BME280;44475;53.206;-6.106;2023-07-16T06:33:34;100317.50;;;24.36;46.99
58698;BME280;44475;53.206;-6.106;2023-07-16T06:36:00;100328.47;;;24.36;47.16
58698;BME280;44475;53.206;-6.106;2023-07-16T06:38:26;100332.94;;;24.37;46.96
58698;BME280;44475;53.206;-6.106;2023-07-16T06:40:53;100335.06;;;24.44;46.76
58698;BME280;44475;53.206;-6.106;2023-07-16T06:43:19;100340.88;;;24.41;46.98
58698;BME280;44475;53.206;-6.106;2023-07-16T06:45:45;100340.00;;;24.40;46.90
58698;BME280;44475;53.206;-6.106;2023-07-16T06:48:12;100348.66;;;24.35;46.85
58698;BME280;44475;53.206;-6.106;2023-07-16T06:50:38;100349.81;;;24.33;47.29
58698;BME280;44475;53.206;-6.106;2023-07-16T06:53:04;100353.81;;;24.38;47.15
58698;BME280;44475;53.206;-6.106;2023-07-16T06:55:30;100356.84;;;24.35;47.04
58698;BME280;44475;53.206;-6.106;2023-07-16T06:57:57;100353.09;;;24.36;47.17
58698;BME280;44475;53.206;-6.106;2023-07-16T07:00:23;100365.78;;;24.37;46.95
58698;BME280;44475;53.206;-6.106;2023-07-16T07:02:49;100371.41;;;24.36;47.31
58698;BME280;44475;53.206;-6.106;2023-07-16T07:05:15;100375.00;;;24.36;47.37
58698;BME280;44475;53.206;-6.106;2023-07-16T07:07:41;100382.81;;;24.41;46.96
58698;BME280;44475;53.206;-6.106;2023-07-16T07:10:09;100388.56;;;24.38;47.10
58698;BME280;44475;53.206;-6.106;2023-07-16T07:12:35;100388.13;;;24.33;47.12
58698;BME280;44475;53.206;-6.106;2023-07-16T07:15:06;100390.56;;;24.36;47.10
58698;BME280;44475;53.206;-6.106;2023-07-16T07:17:32;100394.19;;;24.36;47.12
58698;BME280;44475;53.206;-6.106;2023-07-16T07:19:58;100390.16;;;24.41;47.23
58698;BME280;44475;53.206;-6.106;2023-07-16T07:22:25;100396.31;;;24.43;47.05
58698;BME280;44475;53.206;-6.106;2023-07-16T07:24:51;100402.66;;;24.43;47.00
58698;BME280;44475;53.206;-6.106;2023-07-16T07:27:17;100397.50;;;24.40;47.16
58698;BME280;44475;53.206;-6.106;2023-07-16T07:29:43;100404.06;;;24.47;47.06
58698;BME280;44475;53.206;-6.106;2023-07-16T07:32:12;100409.44;;;24.11;47.63
58698;BME280;44475;53.206;-6.106;2023-07-16T07:34:41;100416.16;;;23.98;48.03
58698;BME280;44475;53.206;-6.106;2023-07-16T07:37:08;100408.91;;;24.07;48.08
58698;BME280;44475;53.206;-6.106;2023-07-16T07:39:34;100418.22;;;23.86;48.46
58698;BME280;44475;53.206;-6.106;2023-07-16T07:42:01;100416.47;;;23.95;48.20
58698;BME280;44475;53.206;-6.106;2023-07-16T07:44:27;100414.56;;;24.24;47.58
58698;BME280;44475;53.206;-6.106;2023-07-16T07:46:53;100417.38;;;23.85;48.35
58698;BME280;44475;53.206;-6.106;2023-07-16T07:49:19;100415.78;;;23.83;48.27
58698;BME280;44475;53.206;-6.106;2023-07-16T07:51:45;100422.31;;;24.00;48.06
58698;BME280;44475;53.206;-6.106;2023-07-16T07:54:13;100425.59;;;23.85;48.28
58698;BME280;44475;53.206;-6.106;2023-07-16T07:56:39;100428.78;;;24.09;47.72
58698;BME280;44475;53.206;-6.106;2023-07-16T07:59:05;100422.53;;;24.17;47.78
58698;BME280;44475;53.206;-6.106;2023-07-16T08:01:32;100435.53;;;24.33;47.32
58698;BME280;44475;53.206;-6.106;2023-07-16T08:03:58;100436.22;;;24.45;46.98
58698;BME280;44475;53.206;-6.106;2023-07-16T08:06:25;100443.72;;;24.43;47.27
58698;BME280;44475;53.206;-6.106;2023-07-16T08:08:52;100435.22;;;24.46;47.17
58698;BME280;44475;53.206;-6.106;2023-07-16T08:11:18;100439.06;;;24.25;47.62
58698;BME280;44475;53.206;-6.106;2023-07-16T08:13:44;100437.34;;;24.24;47.53
58698;BME280;44475;53.206;-6.106;2023-07-16T08:16:10;100447.06;;;24.37;47.29
58698;BME280;44475;53.206;-6.106;2023-07-16T08:18:37;100457.97;;;24.47;47.07
58698;BME280;44475;53.206;-6.106;2023-07-16T08:21:03;100454.25;;;24.38;47.18
58698;BME280;44475;53.206;-6.106;2023-07-16T08:23:29;100446.50;;;24.33;47.40
58698;BME280;44475;53.206;-6.106;2023-07-16T08:25:55;100447.69;;;24.31;47.37
58698;BME280;44475;53.206;-6.106;2023-07-16T08:28:22;100446.34;;;24.35;47.38
58698;BME280;44475;53.206;-6.106;2023-07-16T08:30:48;100450.78;;;24.46;47.23
58698;BME280;44475;53.206;-6.106;2023-07-16T08:33:15;100444.28;;;24.47;47.17
58698;BME280;44475;53.206;-6.106;2023-07-16T08:35:42;100444.25;;;24.28;47.70
58698;BME280;44475;53.206;-6.106;2023-07-16T08:38:08;100453.59;;;24.26;47.79
58698;BME280;44475;53.206;-6.106;2023-07-16T08:40:38;100441.72;;;24.35;47.47
58698;BME280;44475;53.206;-6.106;2023-07-16T08:43:06;100452.81;;;24.44;47.24
58698;BME280;44475;53.206;-6.106;2023-07-16T08:45:39;100454.09;;;24.50;46.98
58698;BME280;44475;53.206;-6.106;2023-07-16T08:48:11;100468.97;;;24.37;47.30
58698;BME280;44475;53.206;-6.106;2023-07-16T08:50:38;100468.72;;;24.30;47.41
58698;BME280;44475;53.206;-6.106;2023-07-16T08:53:07;100472.00;;;24.34;47.44
58698;BME280;44475;53.206;-6.106;2023-07-16T08:55:34;100458.88;;;24.37;47.20
58698;BME280;44475;53.206;-6.106;2023-07-16T08:58:05;100469.13;;;24.35;47.54
58698;BME280;44475;53.206;-6.106;2023-07-16T09:00:32;100472.63;;;24.27;47.84
58698;BME280;44475;53.206;-6.106;2023-07-16T09:03:00;100478.75;;;24.39;47.32
58698;BME280;44475;53.206;-6.106;2023-07-16T09:05:26;100479.13;;;24.26;47.71
58698;BME280;44475;53.206;-6.106;2023-07-16T09:07:52;100483.66;;;24.36;47.53
58698;BME280;44475;53.206;-6.106;2023-07-16T09:10:19;100487.09;;;24.48;47.36
58698;BME280;44475;53.206;-6.106;2023-07-16T09:12:46;100488.72;;;24.41;47.25
58698;BME280;44475;53.206;-6.106;2023-07-16T09:15:17;100490.31;;;24.33;47.49
58698;BME280;44475;53.206;-6.106;2023-07-16T09:17:53;100482.94;;;24.34;47.45
58698;BME280;44475;53.206;-6.106;2023-07-16T09:20:20;100478.91;;;24.38;47.45
58698;BME280;44475;53.206;-6.106;2023-07-16T09:22:47;100491.56;;;24.49;47.04
58698;BME280;44475;53.206;-6.106;2023-07-16T09:25:14;100486.69;;;24.43;47.06
58698;BME280;44475;53.206;-6.106;2023-07-16T09:27:40;100483.66;;;24.36;47.48
58698;BME280;44475;53.206;-6.106;2023-07-16T09:30:14;100484.91;;;24.52;47.14
58698;BME280;44475;53.206;-6.106;2023-07-16T09:32:40;100485.22;;;24.48;47.22
58698;BME280;44475;53.206;-6.106;2023-07-16T09:35:17;100482.88;;;24.54;47.20
58698;BME280;44475;53.206;-6.106;2023-07-16T09:37:44;100478.09;;;24.56;46.99
58698;BME280;44475;53.206;-6.106;2023-07-16T09:40:11;100488.41;;;24.44;47.29
58698;BME280;44475;53.206;-6.106;2023-07-16T09:42:41;100492.28;;;24.51;47.35
58698;BME280;44475;53.206;-6.106;2023-07-16T09:45:18;100488.25;;;24.45;47.33
58698;BME280;44475;53.206;-6.106;2023-07-16T09:47:45;100494.47;;;24.37;47.68
58698;BME280;44475;53.206;-6.106;2023-07-16T09:50:11;100495.16;;;24.50;47.18
58698;BME280;44475;53.206;-6.106;2023-07-16T09:52:38;100496.88;;;24.51;47.22
58698;BME280;44475;53.206;-6.106;2023-07-16T09:55:09;100505.63;;;24.54;47.20
58698;BME280;44475;53.206;-6.106;2023-07-16T09:57:42;100511.44;;;24.51;47.28
58698;BME280;44475;53.206;-6.106;2023-07-16T10:00:10;100506.84;;;24.52;47.35
58698;BME280;44475;53.206;-6.106;2023-07-16T10:02:44;100508.78;;;24.60;47.06
58698;BME280;44475;53.206;-6.106;2023-07-16T10:07:58;100513.63;;;24.47;47.41
58698;BME280;44475;53.206;-6.106;2023-07-16T10:10:41;100514.88;;;24.53;47.52
58698;BME280;44475;53.206;-6.106;2023-07-16T10:13:10;100515.47;;;24.18;46.65
58698;BME280;44475;53.206;-6.106;2023-07-16T10:15:37;100525.69;;;23.78;46.12
58698;BME280;44475;53.206;-6.106;2023-07-16T10:18:03;100526.53;;;23.48;46.78
58698;BME280;44475;53.206;-6.106;2023-07-16T10:20:36;100529.88;;;23.42;46.38
58698;BME280;44475;53.206;-6.106;2023-07-16T10:23:15;100538.81;;;23.04;46.50
58698;BME280;44475;53.206;-6.106;2023-07-16T10:25:59;100514.22;;;23.24;45.82
58698;BME280;44475;53.206;-6.106;2023-07-16T10:28:25;100533.75;;;23.29;46.35
58698;BME280;44475;53.206;-6.106;2023-07-16T10:30:52;100543.53;;;23.32;46.27
58698;BME280;44475;53.206;-6.106;2023-07-16T10:33:18;100538.06;;;23.72;46.50
58698;BME280;44475;53.206;-6.106;2023-07-16T10:35:47;100545.00;;;23.46;46.84
58698;BME280;44475;53.206;-6.106;2023-07-16T10:38:14;100539.53;;;23.66;46.60
58698;BME280;44475;53.206;-6.106;2023-07-16T10:40:41;100537.63;;;23.47;46.97
58698;BME280;44475;53.206;-6.106;2023-07-16T10:43:08;100535.47;;;23.51;47.26
58698;BME280;44475;53.206;-6.106;2023-07-16T10:45:34;100542.41;;;23.45;47.40
58698;BME280;44475;53.206;-6.106;2023-07-16T10:48:01;100547.72;;;23.56;47.82
58698;BME280;44475;53.206;-6.106;2023-07-16T10:50:27;100544.69;;;23.49;47.27
58698;BME280;44475;53.206;-6.106;2023-07-16T10:52:55;100541.53;;;23.34;48.37
58698;BME280;44475;53.206;-6.106;2023-07-16T10:55:22;100547.41;;;23.79;47.80
58698;BME280;44475;53.206;-6.106;2023-07-16T10:57:50;100542.81;;;23.70;45.98
58698;BME280;44475;53.206;-6.106;2023-07-16T11:00:19;100551.59;;;23.74;46.25
58698;BME280;44475;53.206;-6.106;2023-07-16T11:02:47;100548.25;;;23.60;45.66
58698;BME280;44475;53.206;-6.106;2023-07-16T11:05:14;100552.03;;;23.69;47.05
58698;BME280;44475;53.206;-6.106;2023-07-16T11:07:47;100561.78;;;23.92;46.87
58698;BME280;44475;53.206;-6.106;2023-07-16T11:10:16;100567.56;;;23.88;47.20
58698;BME280;44475;53.206;-6.106;2023-07-16T11:12:43;100560.00;;;24.01;46.75
58698;BME280;44475;53.206;-6.106;2023-07-16T11:15:10;100564.91;;;24.07;46.28
58698;BME280;44475;53.206;-6.106;2023-07-16T11:17:39;100565.88;;;24.16;46.20
58698;BME280;44475;53.206;-6.106;2023-07-16T11:20:09;100561.13;;;24.18;45.79
58698;BME280;44475;53.206;-6.106;2023-07-16T11:22:38;100562.56;;;24.12;46.23
58698;BME280;44475;53.206;-6.106;2023-07-16T11:25:10;100560.13;;;24.19;45.92
58698;BME280;44475;53.206;-6.106;2023-07-16T11:27:40;100565.06;;;24.05;46.53
58698;BME280;44475;53.206;-6.106;2023-07-16T11:30:06;100565.69;;;23.59;46.22
58698;BME280;44475;53.206;-6.106;2023-07-16T11:32:37;100568.28;;;23.61;45.08
58698;BME280;44475;53.206;-6.106;2023-07-16T11:35:05;100565.28;;;23.24;44.26
58698;BME280;44475;53.206;-6.106;2023-07-16T11:37:33;100577.22;;;23.73;46.53
58698;BME280;44475;53.206;-6.106;2023-07-16T11:40:10;100581.25;;;23.88;46.24
58698;BME280;44475;53.206;-6.106;2023-07-16T11:42:38;100587.41;;;23.91;46.24
58698;BME280;44475;53.206;-6.106;2023-07-16T11:45:14;100584.97;;;23.97;45.94
58698;BME280;44475;53.206;-6.106;2023-07-16T11:47:41;100585.66;;;23.99;46.22
58698;BME280;44475;53.206;-6.106;2023-07-16T11:50:07;100576.38;;;24.21;45.57
58698;BME280;44475;53.206;-6.106;2023-07-16T11:52:34;100582.28;;;24.26;45.55
58698;BME280;44475;53.206;-6.106;2023-07-16T11:55:00;100577.56;;;24.18;46.07
58698;BME280;44475;53.206;-6.106;2023-07-16T11:57:27;100583.31;;;24.15;46.09
58698;BME280;44475;53.206;-6.106;2023-07-16T11:59:53;100584.16;;;24.25;46.16
58698;BME280;44475;53.206;-6.106;2023-07-16T12:02:20;100588.47;;;24.28;46.29
58698;BME280;44475;53.206;-6.106;2023-07-16T12:04:47;100581.56;;;24.24;46.30
58698;BME280;44475;53.206;-6.106;2023-07-16T12:07:13;100583.97;;;24.37;46.17
58698;BME280;44475;53.206;-6.106;2023-07-16T12:09:40;100583.47;;;24.13;46.71
58698;BME280;44475;53.206;-6.106;2023-07-16T12:12:06;100582.84;;;24.29;46.41
58698;BME280;44475;53.206;-6.106;2023-07-16T12:14:33;100570.41;;;24.35;47.01
58698;BME280;44475;53.206;-6.106;2023-07-16T12:16:59;100576.84;;;24.54;46.90
58698;BME280;44475;53.206;-6.106;2023-07-16T12:19:25;100579.47;;;24.74;46.96
58698;BME280;44475;53.206;-6.106;2023-07-16T12:21:52;100577.16;;;24.80;46.87
58698;BME280;44475;53.206;-6.106;2023-07-16T12:24:18;100576.88;;;24.83;46.98
58698;BME280;44475;53.206;-6.106;2023-07-16T12:26:44;100569.09;;;24.78;47.46
58698;BME280;44475;53.206;-6.106;2023-07-16T12:29:10;100575.66;;;24.85;47.15
58698;BME280;44475;53.206;-6.106;2023-07-16T12:31:37;100575.59;;;24.95;47.09
58698;BME280;44475;53.206;-6.106;2023-07-16T12:34:03;100583.59;;;24.88;47.44
58698;BME280;44475;53.206;-6.106;2023-07-16T12:36:30;100592.97;;;24.86;47.51
58698;BME280;44475;53.206;-6.106;2023-07-16T12:38:57;100585.09;;;25.01;47.35
58698;BME280;44475;53.206;-6.106;2023-07-16T12:41:23;100596.16;;;25.10;47.20
58698;BME280;44475;53.206;-6.106;2023-07-16T12:43:49;100579.13;;;25.06;47.35
58698;BME280;44475;53.206;-6.106;2023-07-16T12:46:15;100582.06;;;25.04;47.53
58698;BME280;44475;53.206;-6.106;2023-07-16T12:48:42;100594.41;;;25.08;47.33
58698;BME280;44475;53.206;-6.106;2023-07-16T12:51:09;100582.28;;;25.11;47.24